Terminal Aerodrome Forecast
Issued by NWS

Home | Current Version | Previous Version | Text Only | Print | Product List | Glossary On
Versions: 1 2 3 4 5 6 7 8 9 10 11 12 13 14 15 16 17 18 19 20 21 22
000
FTUS42 KJAX 222348
TAFVQQ
TAF
KVQQ 222348Z 2300/2324 10008KT P6SM -SHRA BKN025 OVC050
      TEMPO 2303/2307 SCT025
     FM230700 12007KT 3SM SHRA BR SCT010 BKN020 OVC040
     FM231200 15010G15KT P6SM VCSH SCT025 BKN040 OVC120
     FM231500 18011G18KT P6SM VCTS SCT020CB BKN030 OVC090 PROB30
      2315/2319 VRB15G25KT 3SM +TSRA BR SCT010 BKN020CB OVC040=

USA.gov is the U.S. government's official web portal to all federal, state and local government web resources and services.